sensor_id;sensor_type;location;lat;lon;timestamp;pressure;altitude;pressure_sealevel;temperature;humidity
14343;BME280;7255;53.596;9.960;2023-10-13T00:01:02;100962.16;;;13.92;nan
14343;BME280;7255;53.596;9.960;2023-10-13T00:03:30;100955.94;;;13.91;nan
14343;BME280;7255;53.596;9.960;2023-10-13T00:05:57;100962.66;;;13.89;nan
14343;BME280;7255;53.596;9.960;2023-10-13T00:08:25;100954.16;;;13.97;nan
14343;BME280;7255;53.596;9.960;2023-10-13T00:10:54;100948.97;;;14.07;nan
14343;BME280;7255;53.596;9.960;2023-10-13T00:13:27;100956.97;;;14.02;nan
14343;BME280;7255;53.596;9.960;2023-10-13T00:15:53;100956.50;;;14.05;nan
14343;BME280;7255;53.596;9.960;2023-10-13T00:18:24;100954.34;;;14.07;nan
14343;BME280;7255;53.596;9.960;2023-10-13T00:20:51;100951.09;;;14.05;nan
14343;BME280;7255;53.596;9.960;2023-10-13T00:23:21;100943.03;;;14.10;nan
14343;BME280;7255;53.596;9.960;2023-10-13T00:25:49;100947.00;;;14.19;nan
14343;BME280;7255;53.596;9.960;2023-10-13T00:28:26;100951.75;;;14.12;nan
14343;BME280;7255;53.596;9.960;2023-10-13T00:31:01;100941.91;;;14.06;nan
14343;BME280;7255;53.596;9.960;2023-10-13T00:33:35;100934.88;;;14.05;nan
14343;BME280;7255;53.596;9.960;2023-10-13T00:36:03;100925.34;;;14.02;nan
14343;BME280;7255;53.596;9.960;2023-10-13T00:38:30;100934.38;;;14.08;nan
14343;BME280;7255;53.596;9.960;2023-10-13T00:40:57;100926.03;;;14.10;nan
14343;BME280;7255;53.596;9.960;2023-10-13T00:43:30;100917.34;;;14.08;nan
14343;BME280;7255;53.596;9.960;2023-10-13T00:46:01;100917.69;;;14.11;nan
14343;BME280;7255;53.596;9.960;2023-10-13T00:48:38;100914.06;;;14.05;nan
14343;BME280;7255;53.596;9.960;2023-10-13T00:51:09;100908.81;;;13.99;nan
14343;BME280;7255;53.596;9.960;2023-10-13T00:53:44;100906.88;;;14.11;nan
14343;BME280;7255;53.596;9.960;2023-10-13T00:56:10;100895.25;;;14.11;nan
14343;BME280;7255;53.596;9.960;2023-10-13T00:58:45;100899.34;;;14.13;nan
14343;BME280;7255;53.596;9.960;2023-10-13T01:01:11;100890.56;;;14.23;nan
14343;BME280;7255;53.596;9.960;2023-10-13T01:03:45;100891.19;;;14.25;nan
14343;BME280;7255;53.596;9.960;2023-10-13T01:06:11;100888.53;;;14.30;nan
14343;BME280;7255;53.596;9.960;2023-10-13T01:08:39;100890.28;;;14.36;nan
14343;BME280;7255;53.596;9.960;2023-10-13T01:11:04;100885.13;;;14.35;nan
14343;BME280;7255;53.596;9.960;2023-10-13T01:13:33;100878.06;;;14.34;nan
14343;BME280;7255;53.596;9.960;2023-10-13T01:16:02;100868.09;;;14.34;nan
14343;BME280;7255;53.596;9.960;2023-10-13T01:18:32;100879.72;;;14.35;nan
14343;BME280;7255;53.596;9.960;2023-10-13T01:20:58;100860.03;;;14.39;nan
14343;BME280;7255;53.596;9.960;2023-10-13T01:23:27;100854.94;;;14.43;nan
14343;BME280;7255;53.596;9.960;2023-10-13T01:25:54;100864.28;;;14.52;nan
14343;BME280;7255;53.596;9.960;2023-10-13T01:28:21;100852.34;;;14.48;nan
14343;BME280;7255;53.596;9.960;2023-10-13T01:30:47;100848.38;;;14.56;nan
14343;BME280;7255;53.596;9.960;2023-10-13T01:33:16;100857.41;;;14.61;nan
14343;BME280;7255;53.596;9.960;2023-10-13T01:35:41;100850.87;;;14.57;nan
14343;BME280;7255;53.596;9.960;2023-10-13T01:38:13;100856.75;;;14.54;nan
14343;BME280;7255;53.596;9.960;2023-10-13T01:40:40;100853.47;;;14.52;nan
14343;BME280;7255;53.596;9.960;2023-10-13T01:43:08;100845.12;;;14.54;nan
14343;BME280;7255;53.596;9.960;2023-10-13T01:45:36;100841.13;;;14.56;nan
14343;BME280;7255;53.596;9.960;2023-10-13T01:48:04;100833.97;;;14.50;nan
14343;BME280;7255;53.596;9.960;2023-10-13T01:50:30;100826.44;;;14.52;nan
14343;BME280;7255;53.596;9.960;2023-10-13T01:52:56;100822.34;;;14.50;nan
14343;BME280;7255;53.596;9.960;2023-10-13T01:55:37;100820.66;;;14.60;nan
14343;BME280;7255;53.596;9.960;2023-10-13T01:58:09;100821.53;;;14.66;nan
14343;BME280;7255;53.596;9.960;2023-10-13T02:00:40;100808.56;;;14.68;nan
14343;BME280;7255;53.596;9.960;2023-10-13T02:03:08;100803.97;;;14.69;nan
14343;BME280;7255;53.596;9.960;2023-10-13T02:05:39;100808.56;;;14.68;nan
14343;BME280;7255;53.596;9.960;2023-10-13T02:08:11;100811.84;;;14.70;nan
14343;BME280;7255;53.596;9.960;2023-10-13T02:10:42;100804.53;;;14.71;nan
14343;BME280;7255;53.596;9.960;2023-10-13T02:13:13;100796.56;;;14.81;nan
14343;BME280;7255;53.596;9.960;2023-10-13T02:15:41;100788.22;;;14.82;nan
14343;BME280;7255;53.596;9.960;2023-10-13T02:18:10;100787.41;;;14.82;nan
14343;BME280;7255;53.596;9.960;2023-10-13T02:20:35;100773.19;;;14.70;nan
14343;BME280;7255;53.596;9.960;2023-10-13T02:23:08;100777.25;;;14.72;nan
14343;BME280;7255;53.596;9.960;2023-10-13T02:25:36;100761.34;;;14.76;nan
14343;BME280;7255;53.596;9.960;2023-10-13T02:28:08;100766.44;;;14.72;nan
14343;BME280;7255;53.596;9.960;2023-10-13T02:30:40;100772.37;;;14.69;nan
14343;BME280;7255;53.596;9.960;2023-10-13T02:33:13;100765.63;;;14.72;nan
14343;BME280;7255;53.596;9.960;2023-10-13T02:35:39;100756.13;;;14.69;nan
14343;BME280;7255;53.596;9.960;2023-10-13T02:38:09;100756.13;;;14.69;nan
14343;BME280;7255;53.596;9.960;2023-10-13T02:40:37;100748.91;;;14.75;nan
14343;BME280;7255;53.596;9.960;2023-10-13T02:43:03;100748.69;;;14.81;nan
14343;BME280;7255;53.596;9.960;2023-10-13T02:45:30;100749.84;;;14.86;nan
14343;BME280;7255;53.596;9.960;2023-10-13T02:47:58;100743.59;;;14.85;nan
14343;BME280;7255;53.596;9.960;2023-10-13T02:50:35;100739.84;;;14.86;nan
14343;BME280;7255;53.596;9.960;2023-10-13T02:53:03;100735.44;;;14.80;nan
14343;BME280;7255;53.596;9.960;2023-10-13T02:55:37;100734.94;;;14.83;nan
14343;BME280;7255;53.596;9.960;2023-10-13T02:58:04;100737.69;;;14.88;nan
14343;BME280;7255;53.596;9.960;2023-10-13T03:00:29;100721.97;;;14.85;nan
14343;BME280;7255;53.596;9.960;2023-10-13T03:02:58;100717.38;;;14.86;nan
14343;BME280;7255;53.596;9.960;2023-10-13T03:05:24;100720.44;;;14.94;nan
14343;BME280;7255;53.596;9.960;2023-10-13T03:07:54;100715.56;;;14.91;nan
14343;BME280;7255;53.596;9.960;2023-10-13T03:10:20;100702.91;;;14.97;nan
14343;BME280;7255;53.596;9.960;2023-10-13T03:12:46;100698.81;;;14.94;nan
14343;BME280;7255;53.596;9.960;2023-10-13T03:15:14;100696.66;;;14.96;nan
14343;BME280;7255;53.596;9.960;2023-10-13T03:17:43;100690.75;;;14.99;nan
14343;BME280;7255;53.596;9.960;2023-10-13T03:20:11;100691.06;;;15.03;nan
14343;BME280;7255;53.596;9.960;2023-10-13T03:22:38;100680.94;;;14.93;nan
14343;BME280;7255;53.596;9.960;2023-10-13T03:25:05;100684.22;;;14.95;nan
14343;BME280;7255;53.596;9.960;2023-10-13T03:27:32;100682.06;;;14.97;nan
14343;BME280;7255;53.596;9.960;2023-10-13T03:30:06;100684.53;;;14.99;nan
14343;BME280;7255;53.596;9.960;2023-10-13T03:32:38;100672.91;;;14.98;nan
14343;BME280;7255;53.596;9.960;2023-10-13T03:35:09;100672.91;;;14.98;nan
14343;BME280;7255;53.596;9.960;2023-10-13T03:37:50;100677.16;;;14.94;nan
14343;BME280;7255;53.596;9.960;2023-10-13T03:40:16;100671.75;;;14.94;nan
14343;BME280;7255;53.596;9.960;2023-10-13T03:42:58;100670.13;;;14.93;nan
14343;BME280;7255;53.596;9.960;2023-10-13T03:45:29;100669.09;;;14.99;nan
14343;BME280;7255;53.596;9.960;2023-10-13T03:48:02;100664.19;;;14.96;nan
14343;BME280;7255;53.596;9.960;2023-10-13T03:50:34;100664.81;;;15.04;nan
14343;BME280;7255;53.596;9.960;2023-10-13T03:53:03;100656.66;;;14.98;nan
14343;BME280;7255;53.596;9.960;2023-10-13T03:55:31;100650.22;;;15.05;nan
14343;BME280;7255;53.596;9.960;2023-10-13T03:58:00;100647.25;;;15.06;nan
14343;BME280;7255;53.596;9.960;2023-10-13T04:00:28;100654.59;;;15.11;nan
14343;BME280;7255;53.596;9.960;2023-10-13T04:02:55;100635.41;;;15.12;nan
14343;BME280;7255;53.596;9.960;2023-10-13T04:05:34;100639.41;;;15.05;nan
14343;BME280;7255;53.596;9.960;2023-10-13T04:08:08;100643.75;;;15.06;nan
14343;BME280;7255;53.596;9.960;2023-10-13T04:10:58;100643.78;;;15.11;nan
14343;BME280;7255;53.596;9.960;2023-10-13T04:13:41;100630.22;;;15.06;nan
14343;BME280;7255;53.596;9.960;2023-10-13T04:16:25;100638.88;;;15.08;nan
14343;BME280;7255;53.596;9.960;2023-10-13T04:19:01;100625.91;;;15.10;nan
14343;BME280;7255;53.596;9.960;2023-10-13T04:21:34;100617.84;;;15.15;nan
14343;BME280;7255;53.596;9.960;2023-10-13T04:24:10;100628.13;;;15.18;nan
14343;BME280;7255;53.596;9.960;2023-10-13T04:26:55;100621.72;;;15.24;nan
14343;BME280;7255;53.596;9.960;2023-10-13T04:29:39;100604.88;;;15.17;nan
14343;BME280;7255;53.596;9.960;2023-10-13T04:32:17;100613.31;;;15.26;nan
14343;BME280;7255;53.596;9.960;2023-10-13T04:34:54;100611.19;;;15.28;nan
14343;BME280;7255;53.596;9.960;2023-10-13T04:37:23;100603.31;;;15.26;nan
14343;BME280;7255;53.596;9.960;2023-10-13T04:39:56;100596.87;;;15.32;nan
14343;BME280;7255;53.596;9.960;2023-10-13T04:42:34;100601.22;;;15.38;nan
14343;BME280;7255;53.596;9.960;2023-10-13T04:45:16;100593.69;;;15.40;nan
14343;BME280;7255;53.596;9.960;2023-10-13T04:47:53;100588.03;;;15.47;nan
14343;BME280;7255;53.596;9.960;2023-10-13T04:50:38;100576.69;;;15.50;nan
14343;BME280;7255;53.596;9.960;2023-10-13T04:53:10;100576.97;;;15.54;nan
14343;BME280;7255;53.596;9.960;2023-10-13T04:55:54;100564.00;;;15.56;nan
14343;BME280;7255;53.596;9.960;2023-10-13T04:58:33;100550.19;;;15.57;nan
14343;BME280;7255;53.596;9.960;2023-10-13T05:01:32;100555.91;;;15.61;nan
14343;BME280;7255;53.596;9.960;2023-10-13T05:04:18;100552.09;;;15.62;nan
14343;BME280;7255;53.596;9.960;2023-10-13T05:06:55;100542.41;;;15.66;nan
14343;BME280;7255;53.596;9.960;2023-10-13T05:09:39;100528.87;;;15.71;nan
14343;BME280;7255;53.596;9.960;2023-10-13T05:12:25;100529.75;;;15.82;nan
14343;BME280;7255;53.596;9.960;2023-10-13T05:15:09;100520.34;;;15.90;nan
14343;BME280;7255;53.596;9.960;2023-10-13T05:17:53;100519.25;;;15.96;nan
14343;BME280;7255;53.596;9.960;2023-10-13T05:20:37;100509.28;;;16.07;nan
14343;BME280;7255;53.596;9.960;2023-10-13T05:23:20;100514.97;;;16.10;nan
14343;BME280;7255;53.596;9.960;2023-10-13T05:26:04;100509.84;;;16.14;nan
14343;BME280;7255;53.596;9.960;2023-10-13T05:28:50;100512.28;;;16.21;nan
14343;BME280;7255;53.596;9.960;2023-10-13T05:31:34;100505.53;;;16.28;nan
14343;BME280;7255;53.596;9.960;2023-10-13T05:34:17;100502.25;;;16.26;nan
14343;BME280;7255;53.596;9.960;2023-10-13T05:37:01;100498.75;;;16.31;nan
14343;BME280;7255;53.596;9.960;2023-10-13T05:39:45;100495.50;;;16.39;nan
14343;BME280;7255;53.596;9.960;2023-10-13T05:42:29;100482.50;;;16.41;nan
14343;BME280;7255;53.596;9.960;2023-10-13T05:45:15;100473.81;;;16.39;nan
14343;BME280;7255;53.596;9.960;2023-10-13T05:48:02;100470.56;;;16.37;nan
14343;BME280;7255;53.596;9.960;2023-10-13T05:50:28;100481.41;;;16.37;nan
14343;BME280;7255;53.596;9.960;2023-10-13T05:53:15;100483.06;;;16.38;nan
14343;BME280;7255;53.596;9.960;2023-10-13T05:56:03;100471.13;;;16.44;nan
14343;BME280;7255;53.596;9.960;2023-10-13T05:58:47;100476.53;;;16.44;nan
14343;BME280;7255;53.596;9.960;2023-10-13T06:01:32;100481.44;;;16.47;nan
14343;BME280;7255;53.596;9.960;2023-10-13T06:04:16;100487.66;;;16.48;nan
14343;BME280;7255;53.596;9.960;2023-10-13T06:07:00;100483.59;;;16.45;nan
14343;BME280;7255;53.596;9.960;2023-10-13T06:09:44;100474.37;;;16.57;nan
14343;BME280;7255;53.596;9.960;2023-10-13T06:12:28;100476.81;;;16.58;nan
14343;BME280;7255;53.596;9.960;2023-10-13T06:15:18;100466.25;;;16.62;nan
14343;BME280;7255;53.596;9.960;2023-10-13T06:18:03;100470.84;;;16.61;nan
14343;BME280;7255;53.596;9.960;2023-10-13T06:20:47;100468.13;;;16.66;nan
14343;BME280;7255;53.596;9.960;2023-10-13T06:23:31;100462.72;;;16.77;nan
14343;BME280;7255;53.596;9.960;2023-10-13T06:26:15;100470.31;;;16.64;nan
14343;BME280;7255;53.596;9.960;2023-10-13T06:28:59;100464.63;;;16.71;nan
14343;BME280;7255;53.596;9.960;2023-10-13T06:31:26;100462.44;;;16.73;nan
14343;BME280;7255;53.596;9.960;2023-10-13T06:33:53;100451.06;;;16.76;nan
14343;BME280;7255;53.596;9.960;2023-10-13T06:36:20;100451.59;;;16.78;nan
14343;BME280;7255;53.596;9.960;2023-10-13T06:38:47;100446.44;;;16.77;nan
14343;BME280;7255;53.596;9.960;2023-10-13T06:41:20;100449.69;;;16.79;nan
14343;BME280;7255;53.596;9.960;2023-10-13T06:43:55;100443.72;;;16.82;nan
14343;BME280;7255;53.596;9.960;2023-10-13T06:46:26;100446.72;;;16.80;nan
14343;BME280;7255;53.596;9.960;2023-10-13T06:48:55;100453.22;;;16.74;nan
14343;BME280;7255;53.596;9.960;2023-10-13T06:51:24;100445.38;;;16.83;nan
14343;BME280;7255;53.596;9.960;2023-10-13T06:53:56;100437.78;;;16.85;nan
14343;BME280;7255;53.596;9.960;2023-10-13T06:56:22;100438.59;;;16.85;nan
14343;BME280;7255;53.596;9.960;2023-10-13T06:58:54;100429.91;;;16.93;nan
14343;BME280;7255;53.596;9.960;2023-10-13T07:01:25;100428.56;;;16.86;nan
14343;BME280;7255;53.596;9.960;2023-10-13T07:03:52;100434.25;;;16.89;nan
14343;BME280;7255;53.596;9.960;2023-10-13T07:06:20;100422.84;;;16.92;nan
14343;BME280;7255;53.596;9.960;2023-10-13T07:08:46;100407.91;;;16.90;nan
14343;BME280;7255;53.596;9.960;2023-10-13T07:11:17;100419.31;;;16.97;nan
14343;BME280;7255;53.596;9.960;2023-10-13T07:13:58;100401.66;;;17.00;nan
14343;BME280;7255;53.596;9.960;2023-10-13T07:16:24;100401.66;;;17.00;nan
14343;BME280;7255;53.596;9.960;2023-10-13T07:19:00;100404.94;;;17.02;nan
14343;BME280;7255;53.596;9.960;2023-10-13T07:21:32;100401.66;;;17.00;nan
14343;BME280;7255;53.596;9.960;2023-10-13T07:23:59;100402.75;;;17.04;nan
14343;BME280;7255;53.596;9.960;2023-10-13T07:26:36;100387.53;;;17.08;nan
14343;BME280;7255;53.596;9.960;2023-10-13T07:29:08;100398.38;;;17.08;nan
14343;BME280;7255;53.596;9.960;2023-10-13T07:31:35;100387.53;;;17.08;nan
14343;BME280;7255;53.596;9.960;2023-10-13T07:34:03;100398.91;;;17.15;nan
14343;BME280;7255;53.596;9.960;2023-10-13T07:36:39;100381.81;;;17.15;nan
14343;BME280;7255;53.596;9.960;2023-10-13T07:39:08;100374.50;;;17.10;nan
14343;BME280;7255;53.596;9.960;2023-10-13T07:41:49;100372.81;;;17.19;nan
14343;BME280;7255;53.596;9.960;2023-10-13T07:44:20;100359.28;;;17.14;nan
14343;BME280;7255;53.596;9.960;2023-10-13T07:46:51;100343.56;;;17.11;nan
14343;BME280;7255;53.596;9.960;2023-10-13T07:49:27;100319.66;;;17.13;nan
14343;BME280;7255;53.596;9.960;2023-10-13T07:51:58;100327.53;;;17.15;nan
14343;BME280;7255;53.596;9.960;2023-10-13T07:54:26;100321.84;;;17.11;nan
14343;BME280;7255;53.596;9.960;2023-10-13T07:56:52;100324.50;;;17.16;nan
14343;BME280;7255;53.596;9.960;2023-10-13T07:59:20;100321.78;;;17.21;nan
14343;BME280;7255;53.596;9.960;2023-10-13T08:01:47;100315.25;;;17.27;nan
14343;BME280;7255;53.596;9.960;2023-10-13T08:04:33;100306.88;;;17.19;nan
14343;BME280;7255;53.596;9.960;2023-10-13T08:07:01;100295.78;;;17.10;nan
14343;BME280;7255;53.596;9.960;2023-10-13T08:09:38;100303.38;;;17.13;nan
14343;BME280;7255;53.596;9.960;2023-10-13T08:12:06;100300.06;;;17.21;nan
14343;BME280;7255;53.596;9.960;2023-10-13T08:14:36;100291.41;;;17.19;nan
14343;BME280;7255;53.596;9.960;2023-10-13T08:17:04;100279.72;;;17.19;nan
14343;BME280;7255;53.596;9.960;2023-10-13T08:19:33;100267.50;;;17.21;nan
14343;BME280;7255;53.596;9.960;2023-10-13T08:22:09;100273.97;;;17.25;nan
14343;BME280;7255;53.596;9.960;2023-10-13T08:24:51;100266.38;;;17.27;nan
14343;BME280;7255;53.596;9.960;2023-10-13T08:27:36;100267.50;;;17.21;nan
14343;BME280;7255;53.596;9.960;2023-10-13T08:30:14;100266.41;;;17.22;nan
14343;BME280;7255;53.596;9.960;2023-10-13T08:32:51;100262.56;;;17.28;nan
14343;BME280;7255;53.596;9.960;2023-10-13T08:35:22;100266.91;;;17.35;nan
14343;BME280;7255;53.596;9.960;2023-10-13T08:37:49;100264.72;;;17.37;nan
14343;BME280;7255;53.596;9.960;2023-10-13T08:40:29;100247.59;;;17.36;nan
14343;BME280;7255;53.596;9.960;2023-10-13T08:43:13;100251.72;;;17.28;nan
14343;BME280;7255;53.596;9.960;2023-10-13T08:45:42;100256.12;;;17.14;nan
14343;BME280;7255;53.596;9.960;2023-10-13T08:48:24;100254.53;;;17.13;nan
14343;BME280;7255;53.596;9.960;2023-10-13T08:50:56;100259.38;;;17.16;nan
14343;BME280;7255;53.596;9.960;2023-10-13T08:53:31;100248.50;;;17.16;nan
14343;BME280;7255;53.596;9.960;2023-10-13T08:56:00;100251.53;;;17.15;nan
14343;BME280;7255;53.596;9.960;2023-10-13T08:58:40;100244.75;;;17.07;nan
14343;BME280;7255;53.596;9.960;2023-10-13T09:01:32;100245.09;;;17.00;nan
14343;BME280;7255;53.596;9.960;2023-10-13T09:04:06;100240.72;;;17.04;nan
14343;BME280;7255;53.596;9.960;2023-10-13T09:06:50;100222.56;;;17.00;nan
14343;BME280;7255;53.596;9.960;2023-10-13T09:09:48;100230.75;;;16.95;nan
14343;BME280;7255;53.596;9.960;2023-10-13T09:12:36;100226.06;;;17.05;nan
14343;BME280;7255;53.596;9.960;2023-10-13T09:15:07;100221.50;;;16.96;nan
14343;BME280;7255;53.596;9.960;2023-10-13T09:17:50;100235.84;;;17.01;nan
14343;BME280;7255;53.596;9.960;2023-10-13T09:20:28;100237.22;;;17.04;nan
14343;BME280;7255;53.596;9.960;2023-10-13T09:23:07;100243.16;;;17.06;nan
14343;BME280;7255;53.596;9.960;2023-10-13T09:25:37;100227.97;;;17.00;nan
14343;BME280;7255;53.596;9.960;2023-10-13T09:28:10;100236.59;;;17.12;nan
14343;BME280;7255;53.596;9.960;2023-10-13T09:30:44;100236.84;;;17.16;nan
14343;BME280;7255;53.596;9.960;2023-10-13T09:33:09;100230.31;;;17.22;nan
14343;BME280;7255;53.596;9.960;2023-10-13T09:35:43;100215.59;;;17.33;nan
14343;BME280;7255;53.596;9.960;2023-10-13T09:38:13;100228.25;;;17.48;nan
14343;BME280;7255;53.596;9.960;2023-10-13T09:40:42;100212.25;;;17.41;nan
14343;BME280;7255;53.596;9.960;2023-10-13T09:43:11;100208.72;;;17.46;nan
14343;BME280;7255;53.596;9.960;2023-10-13T09:45:41;100212.44;;;17.55;nan
14343;BME280;7255;53.596;9.960;2023-10-13T09:48:10;100207.00;;;17.55;nan
14343;BME280;7255;53.596;9.960;2023-10-13T09:50:43;100208.84;;;17.60;nan
14343;BME280;7255;53.596;9.960;2023-10-13T09:53:10;100206.75;;;17.51;nan
14343;BME280;7255;53.596;9.960;2023-10-13T09:55:43;100197.19;;;17.59;nan
14343;BME280;7255;53.596;9.960;2023-10-13T09:58:11;100195.78;;;17.62;nan
14343;BME280;7255;53.596;9.960;2023-10-13T10:00:43;100195.31;;;17.55;nan
14343;BME280;7255;53.596;9.960;2023-10-13T10:03:12;100188.03;;;17.50;nan
14343;BME280;7255;53.596;9.960;2023-10-13T10:05:55;100184.44;;;17.55;nan
14343;BME280;7255;53.596;9.960;2023-10-13T10:08:28;100179.19;;;17.68;nan
14343;BME280;7255;53.596;9.960;2023-10-13T10:11:07;100172.22;;;17.57;nan
14343;BME280;7255;53.596;9.960;2023-10-13T10:13:47;100173.03;;;17.58;nan
14343;BME280;7255;53.596;9.960;2023-10-13T10:16:23;100164.84;;;17.63;nan
14343;BME280;7255;53.596;9.960;2023-10-13T10:18:59;100145.13;;;17.47;nan
14343;BME280;7255;53.596;9.960;2023-10-13T10:21:32;100150.22;;;17.59;nan
14343;BME280;7255;53.596;9.960;2023-10-13T10:24:00;100145.53;;;17.64;nan
14343;BME280;7255;53.596;9.960;2023-10-13T10:26:31;100131.69;;;17.66;nan
14343;BME280;7255;53.596;9.960;2023-10-13T10:28:58;100136.19;;;17.76;nan
14343;BME280;7255;53.596;9.960;2023-10-13T10:31:31;100123.06;;;17.88;nan
14343;BME280;7255;53.596;9.960;2023-10-13T10:34:11;100126.38;;;17.80;nan
14343;BME280;7255;53.596;9.960;2023-10-13T10:36:38;100129.06;;;18.09;nan
14343;BME280;7255;53.596;9.960;2023-10-13T10:39:08;100128.59;;;18.26;nan
14343;BME280;7255;53.596;9.960;2023-10-13T10:41:38;100115.09;;;18.21;nan
14343;BME280;7255;53.596;9.960;2023-10-13T10:44:11;100104.53;;;18.38;nan
14343;BME280;7255;53.596;9.960;2023-10-13T10:46:44;100099.53;;;18.45;nan
14343;BME280;7255;53.596;9.960;2023-10-13T10:49:22;100090.22;;;18.71;nan
14343;BME280;7255;53.596;9.960;2023-10-13T10:51:57;100083.97;;;18.70;nan
14343;BME280;7255;53.596;9.960;2023-10-13T10:54:26;100078.53;;;18.70;nan
14343;BME280;7255;53.596;9.960;2023-10-13T10:56:58;100063.81;;;18.71;nan
14343;BME280;7255;53.596;9.960;2023-10-13T10:59:36;100066.12;;;18.83;nan
14343;BME280;7255;53.596;9.960;2023-10-13T11:02:03;100081.53;;;18.69;nan
14343;BME280;7255;53.596;9.960;2023-10-13T11:04:31;100085.22;;;18.78;nan
14343;BME280;7255;53.596;9.960;2023-10-13T11:06:59;100071.19;;;18.90;nan
14343;BME280;7255;53.596;9.960;2023-10-13T11:09:27;100064.34;;;18.92;nan
14343;BME280;7255;53.596;9.960;2023-10-13T11:12:11;100057.56;;;19.09;nan
14343;BME280;7255;53.596;9.960;2023-10-13T11:14:42;100053.75;;;19.23;nan
14343;BME280;7255;53.596;9.960;2023-10-13T11:17:18;100051.34;;;19.36;nan
14343;BME280;7255;53.596;9.960;2023-10-13T11:19:46;100024.31;;;19.26;nan
14343;BME280;7255;53.596;9.960;2023-10-13T11:22:14;100008.97;;;19.30;nan
14343;BME280;7255;53.596;9.960;2023-10-13T11:24:58;100007.00;;;19.49;nan
14343;BME280;7255;53.596;9.960;2023-10-13T11:27:29;100008.59;;;19.50;nan
14343;BME280;7255;53.596;9.960;2023-10-13T11:30:20;99998.09;;;19.57;nan
14343;BME280;7255;53.596;9.960;2023-10-13T11:32:57;100001.94;;;19.70;nan
14343;BME280;7255;53.596;9.960;2023-10-13T11:35:24;99992.28;;;19.78;nan
14343;BME280;7255;53.596;9.960;2023-10-13T11:37:50;99978.34;;;19.79;nan
14343;BME280;7255;53.596;9.960;2023-10-13T11:40:21;99979.34;;;19.84;nan
14343;BME280;7255;53.596;9.960;2023-10-13T11:43:10;99974.91;;;19.88;nan
14343;BME280;7255;53.596;9.960;2023-10-13T11:45:39;99989.03;;;19.90;nan
14343;BME280;7255;53.596;9.960;2023-10-13T11:48:17;99997.91;;;19.95;nan
14343;BME280;7255;53.596;9.960;2023-10-13T11:50:49;99978.34;;;19.93;nan
14343;BME280;7255;53.596;9.960;2023-10-13T11:53:15;99956.53;;;19.93;nan
14343;BME280;7255;53.596;9.960;2023-10-13T11:55:41;99953.19;;;19.96;nan
14343;BME280;7255;53.596;9.960;2023-10-13T11:58:09;99942.16;;;20.02;nan
14343;BME280;7255;53.596;9.960;2023-10-13T12:00:35;99963.34;;;20.18;nan
14343;BME280;7255;53.596;9.960;2023-10-13T12:08:57;99938.63;;;20.37;nan
14343;BME280;7255;53.596;9.960;2023-10-13T12:11:36;99933.34;;;20.41;nan
14343;BME280;7255;53.596;9.960;2023-10-13T12:14:04;99929.84;;;20.63;nan
14343;BME280;7255;53.596;9.960;2023-10-13T12:16:42;99917.31;;;20.62;nan
14343;BME280;7255;53.596;9.960;2023-10-13T12:19:15;99924.78;;;20.56;nan
14343;BME280;7255;53.596;9.960;2023-10-13T12:21:42;99923.38;;;20.59;nan
14343;BME280;7255;53.596;9.960;2023-10-13T12:24:09;99917.69;;;20.69;nan
14343;BME280;7255;53.596;9.960;2023-10-13T12:26:47;99919.31;;;20.70;nan
14343;BME280;7255;53.596;9.960;2023-10-13T12:29:13;99916.06;;;20.68;nan
14343;BME280;7255;53.596;9.960;2023-10-13T12:31:47;99911.44;;;20.55;nan
14343;BME280;7255;53.596;9.960;2023-10-13T12:34:32;99915.19;;;20.36;nan
14343;BME280;7255;53.596;9.960;2023-10-13T12:37:19;99903.03;;;20.43;nan
14343;BME280;7255;53.596;9.960;2023-10-13T12:40:04;99911.63;;;20.58;nan
14343;BME280;7255;53.596;9.960;2023-10-13T12:42:48;99914.06;;;20.60;nan
14343;BME280;7255;53.596;9.960;2023-10-13T12:45:32;99913.50;;;20.49;nan
14343;BME280;7255;53.596;9.960;2023-10-13T12:48:16;99907.00;;;20.59;nan
14343;BME280;7255;53.596;9.960;2023-10-13T12:51:07;99908.59;;;20.60;nan
14343;BME280;7255;53.596;9.960;2023-10-13T12:53:45;99896.09;;;20.59;nan
14343;BME280;7255;53.596;9.960;2023-10-13T12:56:11;99904.41;;;20.54;nan
14343;BME280;7255;53.596;9.960;2023-10-13T12:58:38;99903.13;;;20.60;nan
14343;BME280;7255;53.596;9.960;2023-10-13T13:01:04;99903.34;;;20.64;nan
14343;BME280;7255;53.596;9.960;2023-10-13T13:03:31;99892.84;;;20.80;nan
14343;BME280;7255;53.596;9.960;2023-10-13T13:05:58;99906.22;;;20.90;nan
14343;BME280;7255;53.596;9.960;2023-10-13T13:08:29;99908.63;;;20.91;nan
14343;BME280;7255;53.596;9.960;2023-10-13T13:11:00;99883.84;;;21.10;nan
14343;BME280;7255;53.596;9.960;2023-10-13T13:13:27;99885.47;;;21.20;nan
14343;BME280;7255;53.596;9.960;2023-10-13T13:15:54;99886.25;;;21.12;nan
14343;BME280;7255;53.596;9.960;2023-10-13T13:18:21;99893.75;;;21.06;nan
14343;BME280;7255;53.596;9.960;2023-10-13T13:20:47;99891.03;;;20.98;nan
14343;BME280;7255;53.596;9.960;2023-10-13T13:23:19;99897.81;;;20.77;nan
14343;BME280;7255;53.596;9.960;2023-10-13T13:25:46;99865.44;;;20.85;nan
14343;BME280;7255;53.596;9.960;2023-10-13T13:28:12;99854.16;;;20.77;nan
14343;BME280;7255;53.596;9.960;2023-10-13T13:30:40;99863.75;;;20.66;nan
14343;BME280;7255;53.596;9.960;2023-10-13T13:33:07;99854.25;;;20.64;nan
14343;BME280;7255;53.596;9.960;2023-10-13T13:35:37;99835.38;;;20.76;nan
14343;BME280;7255;53.596;9.960;2023-10-13T13:38:04;99821.00;;;21.02;nan
14343;BME280;7255;53.596;9.960;2023-10-13T13:40:37;99813.31;;;21.12;nan
14343;BME280;7255;53.596;9.960;2023-10-13T13:43:05;99812.19;;;21.13;nan
14343;BME280;7255;53.596;9.960;2023-10-13T13:45:32;99813.81;;;21.14;nan
14343;BME280;7255;53.596;9.960;2023-10-13T13:47:59;99815.72;;;21.05;nan
14343;BME280;7255;53.596;9.960;2023-10-13T13:50:32;99812.84;;;21.10;nan
14343;BME280;7255;53.596;9.960;2023-10-13T13:53:05;99808.34;;;21.14;nan
14343;BME280;7255;53.596;9.960;2023-10-13T13:55:34;99803.37;;;21.17;nan
14343;BME280;7255;53.596;9.960;2023-10-13T13:58:01;99795.31;;;21.03;nan
14343;BME280;7255;53.596;9.960;2023-10-13T14:00:34;99797.09;;;21.07;nan
14343;BME280;7255;53.596;9.960;2023-10-13T14:03:08;99801.94;;;21.10;nan